createdAt,value
2022-12-16T00:01:08.159Z,4.40
2022-12-16T00:03:35.974Z,4.30
2022-12-16T00:06:04.568Z,4.68
2022-12-16T00:08:36.437Z,4.63
2022-12-16T00:11:03.885Z,4.05
2022-12-16T00:13:32.672Z,4.70
2022-12-16T00:16:00.253Z,4.15
2022-12-16T00:18:26.862Z,4.82
2022-12-16T00:20:55.310Z,4.95
2022-12-16T00:23:22.820Z,4.78
2022-12-16T00:25:49.987Z,4.80
2022-12-16T00:28:22.633Z,4.72
2022-12-16T00:30:51.072Z,4.32
2022-12-16T00:33:19.909Z,4.15
2022-12-16T00:35:46.548Z,4.30
2022-12-16T00:38:13.988Z,4.30
2022-12-16T00:40:41.006Z,4.75
2022-12-16T00:43:08.035Z,4.78
2022-12-16T00:45:35.111Z,4.35
2022-12-16T00:48:01.875Z,4.85
2022-12-16T00:50:28.433Z,4.10
2022-12-16T00:52:54.992Z,4.28
2022-12-16T00:55:21.615Z,4.47
2022-12-16T00:57:48.274Z,4.45
2022-12-16T01:00:17.299Z,4.10
2022-12-16T01:02:46.838Z,4.15
2022-12-16T01:05:16.040Z,3.45
2022-12-16T01:07:42.998Z,3.88
2022-12-16T01:10:11.336Z,3.95
2022-12-16T01:12:38.797Z,3.65
2022-12-16T01:15:06.969Z,3.58
2022-12-16T01:17:35.203Z,3.83
2022-12-16T01:20:02.502Z,3.28
2022-12-16T01:22:31.473Z,3.63
2022-12-16T01:24:59.071Z,3.50
2022-12-16T01:27:26.483Z,3.30
2022-12-16T01:29:53.140Z,3.28
2022-12-16T01:32:22.460Z,3.67
2022-12-16T01:34:55.256Z,3.15
2022-12-16T01:37:23.178Z,3.70
2022-12-16T01:39:50.505Z,2.97
2022-12-16T01:42:20.282Z,2.95
2022-12-16T01:44:49.556Z,3.17
2022-12-16T01:49:51.768Z,2.47
2022-12-16T01:52:27.657Z,2.92
2022-12-16T01:55:18.652Z,2.70
2022-12-16T01:57:51.860Z,3.08
2022-12-16T02:00:22.278Z,2.60
2022-12-16T02:02:49.682Z,2.75
2022-12-16T02:05:20.495Z,2.63
2022-12-16T02:08:18.725Z,2.80
2022-12-16T02:10:45.211Z,2.67
2022-12-16T02:13:39.609Z,2.75
2022-12-16T02:16:22.406Z,2.90
2022-12-16T02:18:51.896Z,2.55
2022-12-16T02:21:25.326Z,2.85
2022-12-16T02:24:02.319Z,2.72
2022-12-16T02:27:06.469Z,2.78
2022-12-16T02:30:04.825Z,2.83
2022-12-16T02:32:52.534Z,2.90
2022-12-16T02:35:32.356Z,2.50
2022-12-16T02:38:27.449Z,2.42
2022-12-16T02:41:02.324Z,2.40
2022-12-16T02:43:41.031Z,3.00
2022-12-16T02:46:08.817Z,2.30
2022-12-16T02:48:35.450Z,2.65
2022-12-16T02:51:02.022Z,2.88
2022-12-16T02:53:31.381Z,3.03
2022-12-16T02:56:30.219Z,2.70
2022-12-16T02:59:05.767Z,3.20
2022-12-16T03:01:41.728Z,3.20
2022-12-16T03:04:15.429Z,2.88
2022-12-16T03:06:46.321Z,2.78
2022-12-16T03:09:16.136Z,2.77
2022-12-16T03:11:44.833Z,2.72
2022-12-16T03:14:16.329Z,2.75
2022-12-16T03:16:44.950Z,2.70
2022-12-16T03:19:12.804Z,2.78
2022-12-16T03:22:06.480Z,2.65
2022-12-16T03:24:33.649Z,2.80
2022-12-16T03:27:20.716Z,2.50
2022-12-16T03:29:47.195Z,2.33
2022-12-16T03:32:21.623Z,2.20
2022-12-16T03:34:56.034Z,2.30
2022-12-16T03:37:27.157Z,2.22
2022-12-16T03:39:57.819Z,2.50
2022-12-16T03:42:25.197Z,2.50
2022-12-16T03:44:52.073Z,4.63
2022-12-16T03:47:23.580Z,2.58
2022-12-16T03:49:50.707Z,2.17
2022-12-16T03:52:17.381Z,1.95
2022-12-16T03:54:43.938Z,2.17
2022-12-16T03:57:15.035Z,1.98
2022-12-16T04:02:09.318Z,1.80
2022-12-16T04:04:35.966Z,2.05
2022-12-16T04:07:20.892Z,2.40
2022-12-16T04:09:52.100Z,2.00
2022-12-16T04:12:38.851Z,2.50
2022-12-16T04:15:25.418Z,2.47
2022-12-16T04:18:10.834Z,2.28
2022-12-16T04:21:06.016Z,2.10
2022-12-16T04:23:53.437Z,2.00
2022-12-16T04:26:20.893Z,2.00
2022-12-16T04:28:47.440Z,2.40
2022-12-16T04:31:14.068Z,2.47
2022-12-16T04:33:59.825Z,2.42
2022-12-16T04:36:44.812Z,2.40
2022-12-16T04:39:29.745Z,2.30
2022-12-16T04:42:14.907Z,2.47
2022-12-16T04:45:00.361Z,2.28
2022-12-16T04:47:46.000Z,2.20
2022-12-16T04:50:31.360Z,2.38
2022-12-16T04:53:16.305Z,2.75
2022-12-16T04:56:04.356Z,2.60
2022-12-16T04:58:49.854Z,3.05
2022-12-16T05:01:35.016Z,3.13
2022-12-16T05:04:20.254Z,2.72
2022-12-16T05:07:05.170Z,3.08
2022-12-16T05:09:49.983Z,3.13
2022-12-16T05:12:34.972Z,3.85
2022-12-16T05:15:19.846Z,3.47
2022-12-16T05:18:04.782Z,5.53
2022-12-16T05:20:49.722Z,4.93
2022-12-16T05:23:35.482Z,4.22
2022-12-16T05:26:20.920Z,4.32
2022-12-16T05:29:13.373Z,4.07
2022-12-16T05:31:58.192Z,3.25
2022-12-16T05:34:43.155Z,4.18
2022-12-16T05:37:28.557Z,3.92
2022-12-16T05:40:13.589Z,5.32
2022-12-16T05:42:58.631Z,6.10
2022-12-16T05:45:43.564Z,5.82
2022-12-16T05:48:28.780Z,7.13
2022-12-16T05:51:13.759Z,8.02
2022-12-16T05:53:58.965Z,4.55
2022-12-16T05:57:03.802Z,3.78
2022-12-16T05:59:49.149Z,5.47
2022-12-16T06:02:34.470Z,6.18
2022-12-16T06:05:19.548Z,5.60
2022-12-16T06:08:11.700Z,5.45
2022-12-16T06:10:57.182Z,5.38
2022-12-16T06:13:42.406Z,5.32
2022-12-16T06:16:27.326Z,5.25
2022-12-16T06:19:12.615Z,5.07
2022-12-16T06:21:57.787Z,5.68
2022-12-16T06:24:43.115Z,4.70
2022-12-16T06:27:28.043Z,4.68
2022-12-16T06:30:13.452Z,3.85
2022-12-16T06:32:58.722Z,4.82
2022-12-16T06:35:43.761Z,3.90
2022-12-16T06:38:29.306Z,4.10
2022-12-16T06:41:14.910Z,3.50
2022-12-16T06:44:00.694Z,5.07
2022-12-16T06:46:45.630Z,5.95
2022-12-16T06:49:30.547Z,8.35
2022-12-16T06:52:15.671Z,5.07
2022-12-16T06:55:00.480Z,5.43
2022-12-16T06:57:45.476Z,5.43
2022-12-16T07:00:31.233Z,5.47
2022-12-16T07:03:16.198Z,4.43
2022-12-16T07:06:01.482Z,5.03
2022-12-16T07:08:46.654Z,4.43
2022-12-16T07:11:31.867Z,4.47
2022-12-16T07:14:16.891Z,4.30
2022-12-16T07:17:02.005Z,4.68
2022-12-16T07:19:47.120Z,4.97
2022-12-16T07:22:32.221Z,4.57
2022-12-16T07:25:17.160Z,4.95
2022-12-16T07:28:10.711Z,5.22
2022-12-16T07:31:01.691Z,5.07
2022-12-16T07:33:46.489Z,4.70
2022-12-16T07:36:31.396Z,5.25
2022-12-16T07:39:16.818Z,5.03
2022-12-16T07:42:02.325Z,4.80
2022-12-16T07:44:47.279Z,9.32
2022-12-16T07:47:32.357Z,5.53
2022-12-16T07:50:17.875Z,5.30
2022-12-16T07:53:02.970Z,4.60
2022-12-16T07:55:47.832Z,5.20
2022-12-16T07:58:32.880Z,4.28
2022-12-16T08:01:19.351Z,5.43
2022-12-16T08:04:04.617Z,5.45
2022-12-16T08:06:49.585Z,5.50
2022-12-16T08:09:34.433Z,8.63
2022-12-16T08:12:19.923Z,7.53
2022-12-16T08:15:04.967Z,9.95
2022-12-16T08:17:49.859Z,9.90
2022-12-16T08:20:38.067Z,10.00
2022-12-16T08:23:23.773Z,9.40
2022-12-16T08:26:08.665Z,8.75
2022-12-16T08:28:53.999Z,8.68
2022-12-16T08:31:39.205Z,5.28
2022-12-16T08:34:24.100Z,5.78
2022-12-16T08:37:09.039Z,4.68
2022-12-16T08:40:17.609Z,4.57
2022-12-16T08:42:59.377Z,3.80
2022-12-16T08:45:44.480Z,3.65
2022-12-16T08:48:29.886Z,3.72
2022-12-16T08:51:15.462Z,4.18
2022-12-16T08:54:00.303Z,3.88
2022-12-16T08:56:45.269Z,3.28
2022-12-16T08:59:30.341Z,3.60
2022-12-16T09:02:15.880Z,3.30
2022-12-16T09:05:01.115Z,3.15
2022-12-16T09:07:46.463Z,3.40
2022-12-16T09:10:37.609Z,2.90
2022-12-16T09:13:30.609Z,3.17
2022-12-16T09:16:19.462Z,2.53
2022-12-16T09:19:05.364Z,3.40
2022-12-16T09:21:50.531Z,3.08
2022-12-16T09:24:35.690Z,3.10
2022-12-16T09:27:20.416Z,2.65
2022-12-16T09:30:05.546Z,2.65
2022-12-16T09:32:50.517Z,2.78
2022-12-16T09:35:35.828Z,4.00
2022-12-16T09:38:20.719Z,3.50
2022-12-16T09:41:05.880Z,2.83
2022-12-16T09:44:14.259Z,3.03
2022-12-16T09:47:16.592Z,3.13
2022-12-16T09:50:07.915Z,2.70
2022-12-16T09:53:01.217Z,3.55
2022-12-16T09:55:57.864Z,3.75
2022-12-16T09:58:47.843Z,2.75
2022-12-16T10:01:34.221Z,3.40
2022-12-16T10:04:19.661Z,3.28
2022-12-16T10:07:05.896Z,4.93
2022-12-16T10:10:00.496Z,4.25
2022-12-16T10:13:10.594Z,3.05
2022-12-16T10:16:13.957Z,2.97
2022-12-16T10:18:59.215Z,3.22
2022-12-16T10:21:54.180Z,3.50
2022-12-16T10:24:53.743Z,3.30
2022-12-16T10:28:07.883Z,3.45
2022-12-16T10:30:56.433Z,3.08
2022-12-16T10:33:46.577Z,3.15
2022-12-16T10:36:39.022Z,3.40
2022-12-16T10:39:47.766Z,2.65
2022-12-16T10:42:42.862Z,2.90
2022-12-16T10:45:39.959Z,3.05
2022-12-16T10:48:27.224Z,2.80
2022-12-16T10:51:12.150Z,2.75
2022-12-16T10:53:57.154Z,2.70
2022-12-16T10:56:51.412Z,2.72
2022-12-16T10:59:36.836Z,2.80
2022-12-16T11:02:34.306Z,2.25
2022-12-16T11:05:19.722Z,2.58
2022-12-16T11:08:04.833Z,2.53
2022-12-16T11:10:56.962Z,2.60
2022-12-16T11:16:40.237Z,4.90
2022-12-16T11:19:37.684Z,2.72
2022-12-16T11:22:37.835Z,2.38
2022-12-16T11:25:41.284Z,2.30
2022-12-16T11:28:31.568Z,2.50
2022-12-16T11:31:19.931Z,2.53
2022-12-16T11:34:06.114Z,2.90
2022-12-16T11:36:52.694Z,2.78
2022-12-16T11:39:43.043Z,2.80
2022-12-16T11:42:45.762Z,3.17
2022-12-16T11:45:37.851Z,2.80
2022-12-16T11:48:46.035Z,2.53
2022-12-16T11:51:34.991Z,2.33
2022-12-16T11:54:39.806Z,1.83
2022-12-16T11:57:36.429Z,2.10
2022-12-16T12:00:23.877Z,2.90
2022-12-16T12:03:12.309Z,2.30
2022-12-16T12:06:04.926Z,1.70
2022-12-16T12:09:12.507Z,1.83
2022-12-16T12:12:08.666Z,2.15
2022-12-16T12:15:16.878Z,2.03
2022-12-16T12:18:27.049Z,2.20
2022-12-16T12:21:30.964Z,2.03
2022-12-16T12:24:51.394Z,1.90
2022-12-16T12:27:48.414Z,1.95
2022-12-16T12:30:38.341Z,2.13
2022-12-16T12:33:40.588Z,2.00
2022-12-16T12:36:44.257Z,2.75
2022-12-16T12:39:29.046Z,2.40
2022-12-16T12:42:14.192Z,2.42
2022-12-16T12:45:18.295Z,2.20
2022-12-16T12:48:22.644Z,1.95
2022-12-16T12:51:25.466Z,2.15
2022-12-16T12:54:42.817Z,1.90
2022-12-16T12:57:31.623Z,2.28
2022-12-16T13:00:20.116Z,2.90
2022-12-16T13:03:26.531Z,3.13
2022-12-16T13:06:12.658Z,2.33
2022-12-16T13:09:04.657Z,2.00
2022-12-16T13:11:49.974Z,3.50
2022-12-16T13:14:50.644Z,5.18
2022-12-16T13:17:40.688Z,4.63
2022-12-16T13:20:50.727Z,3.80
2022-12-16T13:23:51.802Z,3.25
2022-12-16T13:26:46.171Z,4.65
2022-12-16T13:29:37.137Z,2.67
2022-12-16T13:32:23.510Z,3.30
2022-12-16T13:35:36.169Z,2.83
2022-12-16T13:38:36.462Z,1.70
2022-12-16T13:41:24.779Z,1.73
2022-12-16T13:44:17.928Z,1.77
2022-12-16T13:47:08.966Z,1.40
2022-12-16T13:50:00.094Z,1.95
2022-12-16T13:52:56.740Z,2.30
2022-12-16T13:55:57.059Z,2.17
2022-12-16T13:59:02.967Z,1.90
2022-12-16T14:02:06.819Z,2.25
2022-12-16T14:04:58.181Z,2.03
2022-12-16T14:07:45.139Z,2.27
2022-12-16T14:10:42.419Z,2.33
2022-12-16T14:13:45.613Z,2.20
2022-12-16T14:17:01.865Z,2.10
2022-12-16T14:20:08.498Z,2.25
2022-12-16T14:23:10.649Z,2.67
2022-12-16T14:25:58.397Z,2.47
2022-12-16T14:28:55.501Z,2.75
2022-12-16T14:31:52.875Z,2.88
2022-12-16T14:34:49.928Z,2.80
2022-12-16T14:37:41.005Z,2.88
2022-12-16T14:40:44.868Z,3.10
2022-12-16T14:43:36.526Z,3.45
2022-12-16T14:46:22.125Z,3.17
2022-12-16T14:49:09.085Z,3.00
2022-12-16T14:52:05.135Z,3.17
2022-12-16T14:54:56.197Z,3.70
2022-12-16T14:57:47.472Z,3.35
2022-12-16T15:00:32.955Z,3.90
2022-12-16T15:03:49.553Z,3.72
2022-12-16T15:06:44.433Z,4.50
2022-12-16T15:09:40.011Z,3.97
2022-12-16T15:12:27.341Z,4.40
2022-12-16T15:15:14.207Z,4.40
2022-12-16T15:18:11.844Z,4.32
2022-12-16T15:21:11.796Z,4.30
2022-12-16T15:24:02.881Z,3.80
2022-12-16T15:26:53.680Z,4.60
2022-12-16T15:29:59.388Z,4.53
2022-12-16T15:32:44.519Z,4.43
2022-12-16T15:35:42.231Z,3.67
2022-12-16T15:38:34.652Z,4.03
2022-12-16T15:41:32.870Z,4.53
2022-12-16T15:44:32.008Z,4.72
2022-12-16T15:47:17.437Z,4.32
2022-12-16T15:50:06.018Z,4.00
2022-12-16T15:52:54.068Z,4.22
2022-12-16T15:55:45.187Z,3.75
2022-12-16T15:58:39.465Z,5.57
2022-12-16T16:01:26.488Z,4.30
2022-12-16T16:04:14.266Z,4.35
2022-12-16T16:07:11.500Z,4.50
2022-12-16T16:09:58.214Z,4.40
2022-12-16T16:12:44.184Z,4.68
2022-12-16T16:15:31.689Z,4.60
2022-12-16T16:18:20.329Z,4.45
2022-12-16T16:21:06.190Z,4.60
2022-12-16T16:23:51.848Z,4.90
2022-12-16T16:26:39.417Z,4.22
2022-12-16T16:29:25.036Z,5.40
2022-12-16T16:32:13.520Z,5.38
2022-12-16T16:34:58.829Z,5.05
2022-12-16T16:37:43.702Z,5.03
2022-12-16T16:40:36.741Z,5.22
2022-12-16T16:43:22.656Z,4.68
2022-12-16T16:46:12.716Z,4.72
2022-12-16T16:48:58.412Z,4.70
2022-12-16T16:51:43.949Z,4.72
2022-12-16T16:54:29.317Z,4.88
2022-12-16T16:57:14.827Z,4.65
2022-12-16T16:59:59.573Z,4.40
2022-12-16T17:02:45.121Z,4.63
2022-12-16T17:05:30.637Z,4.70
2022-12-16T17:08:15.944Z,4.65
2022-12-16T17:11:02.375Z,5.03
2022-12-16T17:13:47.853Z,4.90
2022-12-16T17:16:33.685Z,4.78
2022-12-16T17:19:19.076Z,4.80
2022-12-16T17:22:04.473Z,4.60
2022-12-16T17:24:53.945Z,5.07
2022-12-16T17:27:43.393Z,4.57
2022-12-16T17:30:34.954Z,4.93
2022-12-16T17:33:20.290Z,5.28
2022-12-16T17:36:07.940Z,4.93
2022-12-16T17:38:57.422Z,5.43
2022-12-16T17:41:43.014Z,4.68
2022-12-16T17:44:27.940Z,4.72
2022-12-16T17:47:13.181Z,5.97
2022-12-16T17:50:05.547Z,5.18
2022-12-16T17:52:50.956Z,5.47
2022-12-16T17:55:36.341Z,5.43
2022-12-16T17:58:21.765Z,5.90
2022-12-16T18:01:06.602Z,6.00
2022-12-16T18:03:52.031Z,5.68
2022-12-16T18:06:38.608Z,6.13
2022-12-16T18:09:24.019Z,6.65
2022-12-16T18:12:09.177Z,6.47
2022-12-16T18:14:53.988Z,6.13
2022-12-16T18:17:40.814Z,6.10
2022-12-16T18:20:26.160Z,6.30
2022-12-16T18:23:12.413Z,7.15
2022-12-16T18:25:57.825Z,6.40
2022-12-16T18:28:42.737Z,6.65
2022-12-16T18:31:28.269Z,6.75
2022-12-16T18:34:13.438Z,6.80
2022-12-16T18:36:58.905Z,6.60
2022-12-16T18:39:43.690Z,6.53
2022-12-16T18:42:29.138Z,7.32
2022-12-16T18:45:14.369Z,7.30
2022-12-16T18:47:59.161Z,10.82
2022-12-16T18:50:44.382Z,10.20
2022-12-16T18:53:29.224Z,9.75
2022-12-16T18:56:19.192Z,16.20
2022-12-16T18:59:04.251Z,10.23
2022-12-16T19:01:49.266Z,8.20
2022-12-16T19:04:34.548Z,11.23
2022-12-16T19:07:19.353Z,10.52
2022-12-16T19:10:04.137Z,9.40
2022-12-16T19:12:49.564Z,8.48
2022-12-16T19:15:40.894Z,8.85
2022-12-16T19:18:26.556Z,7.20
2022-12-16T19:21:12.997Z,9.98
2022-12-16T19:23:57.799Z,7.78
2022-12-16T19:26:42.973Z,7.38
2022-12-16T19:29:27.831Z,8.25
2022-12-16T19:32:13.031Z,7.82
2022-12-16T19:34:58.471Z,7.20
2022-12-16T19:37:43.374Z,6.70
2022-12-16T19:40:29.469Z,5.85
2022-12-16T19:43:14.858Z,6.60
2022-12-16T19:45:59.859Z,7.55
2022-12-16T19:48:45.068Z,6.53
2022-12-16T19:51:30.446Z,7.07
2022-12-16T19:54:15.732Z,6.68
2022-12-16T19:57:00.518Z,7.22
2022-12-16T19:59:45.579Z,6.72
2022-12-16T20:02:31.221Z,6.65
2022-12-16T20:05:16.841Z,10.48
2022-12-16T20:08:02.241Z,8.48
2022-12-16T20:10:48.047Z,8.10
2022-12-16T20:13:33.063Z,8.82
2022-12-16T20:16:22.487Z,11.43
2022-12-16T20:19:07.925Z,9.63
2022-12-16T20:21:56.380Z,9.45
2022-12-16T20:24:44.288Z,7.68
2022-12-16T20:27:29.649Z,7.80
2022-12-16T20:30:15.010Z,6.97
2022-12-16T20:33:00.578Z,8.20
2022-12-16T20:35:45.628Z,10.00
2022-12-16T20:38:31.206Z,10.48
2022-12-16T20:41:20.649Z,10.20
2022-12-16T20:44:09.555Z,10.95
2022-12-16T20:46:56.127Z,9.80
2022-12-16T20:49:41.861Z,10.75
2022-12-16T20:52:43.681Z,12.30
2022-12-16T20:55:28.912Z,10.50
2022-12-16T20:58:13.726Z,11.63
2022-12-16T21:00:58.932Z,10.55
2022-12-16T21:03:44.779Z,12.20
2022-12-16T21:06:30.570Z,12.57
2022-12-16T21:09:15.785Z,13.45
2022-12-16T21:12:00.637Z,13.95
2022-12-16T21:14:45.542Z,15.25
2022-12-16T21:17:30.491Z,13.85
2022-12-16T21:20:15.610Z,13.55
2022-12-16T21:23:00.575Z,13.18
2022-12-16T21:25:46.064Z,13.63
2022-12-16T21:28:31.687Z,14.10
2022-12-16T21:31:19.934Z,14.05
2022-12-16T21:34:04.704Z,12.38
2022-12-16T21:36:49.791Z,17.08
2022-12-16T21:39:34.812Z,14.77
2022-12-16T21:42:19.753Z,14.50
2022-12-16T21:45:04.557Z,12.57
2022-12-16T21:47:49.516Z,12.35
2022-12-16T21:50:34.589Z,12.20
2022-12-16T21:53:19.902Z,12.27
2022-12-16T21:56:10.790Z,13.73
2022-12-16T21:58:56.173Z,12.98
2022-12-16T22:01:41.545Z,12.55
2022-12-16T22:04:28.136Z,12.30
2022-12-16T22:07:12.947Z,12.30
2022-12-16T22:09:58.189Z,12.40
2022-12-16T22:12:43.608Z,12.43
2022-12-16T22:15:29.028Z,11.38
2022-12-16T22:18:14.341Z,10.75
2022-12-16T22:20:59.750Z,12.80
2022-12-16T22:23:48.596Z,12.13
2022-12-16T22:26:33.982Z,11.23
2022-12-16T22:29:19.439Z,10.73
2022-12-16T22:32:04.439Z,10.38
2022-12-16T22:34:49.468Z,9.65
2022-12-16T22:37:34.725Z,9.10
2022-12-16T22:40:19.794Z,9.75
2022-12-16T22:43:07.160Z,11.32
2022-12-16T22:45:52.157Z,10.70
2022-12-16T22:48:37.283Z,10.43
2022-12-16T22:51:22.953Z,10.63
2022-12-16T22:54:07.799Z,11.02
2022-12-16T22:56:52.806Z,8.73
2022-12-16T22:59:41.613Z,8.95
2022-12-16T23:02:26.489Z,9.93
2022-12-16T23:05:11.948Z,9.40
2022-12-16T23:08:04.643Z,9.55
2022-12-16T23:10:49.732Z,10.48
2022-12-16T23:13:34.701Z,9.57
2022-12-16T23:16:19.768Z,10.27
2022-12-16T23:19:04.808Z,9.25
2022-12-16T23:21:49.968Z,10.32
2022-12-16T23:24:34.824Z,10.27
2022-12-16T23:27:19.849Z,10.32
2022-12-16T23:30:04.935Z,10.45
2022-12-16T23:32:49.969Z,10.57
2022-12-16T23:35:35.496Z,10.85
2022-12-16T23:38:21.681Z,9.80
2022-12-16T23:41:07.160Z,9.65
2022-12-16T23:43:52.173Z,10.40
2022-12-16T23:46:37.463Z,11.30
2022-12-16T23:49:22.739Z,10.93
2022-12-16T23:52:07.623Z,11.10
2022-12-16T23:54:52.663Z,10.05
2022-12-16T23:57:37.432Z,10.68
